Time;durP1;ratioP1;P1;durP2;ratioP2;P2;SDS_P1;SDS_P2;PMS_P1;PMS_P2;Temp;Humidity;BMP_temperature;BMP_pressure;BME280_temperature;BME280_humidity;BME280_pressure;Samples;Min_cycle;Max_cycle;Signal;HPM_P1;HPM_P2
2022/01/17 00:00:23;;;;;;;12.47;6.40;;;0.40;99.90;0.20;95118.00;;;;6158704;23;20176;-80
2022/01/17 00:02:52;;;;;;;14.00;7.23;;;0.40;99.90;0.40;95155.00;;;;6159788;23;20545;-81
2022/01/17 00:05:20;;;;;;;9.97;6.70;;;0.40;99.90;0.40;95110.00;;;;6161038;23;20219;-79
2022/01/17 00:07:47;;;;;;;11.27;6.13;;;0.40;99.90;-0.10;95154.00;;;;6158618;23;20169;-81
2022/01/17 00:10:15;;;;;;;9.67;6.30;;;0.40;99.90;0.40;95102.00;;;;6185211;23;20152;-79
2022/01/17 00:12:45;;;;;;;8.83;6.47;;;0.40;99.90;0.20;95086.00;;;;6167153;23;20260;-82
2022/01/17 00:15:40;;;;;;;9.50;6.47;;;0.50;72.20;0.30;94785.00;;;;6184367;23;20187;-80
2022/01/17 00:20:46;;;;;;;10.60;6.27;;;0.50;1.00;0.50;95217.00;;;;6186264;23;20187;-80
2022/01/17 00:23:15;;;;;;;8.83;5.80;;;0.50;1.00;0.50;94931.00;;;;6182569;23;20161;-80
2022/01/17 00:25:43;;;;;;;7.70;5.30;;;0.60;1.00;0.60;95153.00;;;;6183557;23;20947;-79
2022/01/17 00:28:10;;;;;;;10.47;5.37;;;0.60;1.00;0.50;95118.00;;;;6185775;23;20215;-81
2022/01/17 00:30:37;;;;;;;8.50;4.90;;;0.50;1.00;0.20;95151.00;;;;6158339;23;20612;-83
2022/01/17 00:33:04;;;;;;;7.87;5.20;;;0.60;1.00;0.50;95102.00;;;;6158223;23;20165;-80
2022/01/17 00:35:31;;;;;;;8.83;5.53;;;0.60;1.00;0.50;95120.00;;;;6181995;23;20165;-79
2022/01/17 00:37:58;;;;;;;7.20;5.27;;;0.60;1.00;0.40;95148.00;;;;6156243;23;20168;-82
2022/01/17 00:40:25;;;;;;;9.67;5.33;;;0.60;1.00;0.70;95165.00;;;;6181699;23;20265;-79
2022/01/17 00:42:52;;;;;;;9.97;5.60;;;0.60;1.00;0.90;95141.00;;;;6180546;23;20608;-79
2022/01/17 00:45:25;;;;;;;8.70;5.10;;;0.60;1.00;0.70;95132.00;;;;6156735;23;20199;-80
2022/01/17 00:47:55;;;;;;;9.97;5.03;;;0.60;1.00;0.70;95098.00;;;;6157206;23;20680;-80
2022/01/17 00:50:27;;;;;;;8.73;4.60;;;0.70;1.00;0.70;95114.00;;;;6157619;23;20215;-79
2022/01/17 00:52:55;;;;;;;8.67;5.20;;;0.70;1.00;0.80;95108.00;;;;6180687;23;20570;-79
2022/01/17 00:55:22;;;;;;;8.07;5.00;;;0.70;1.00;0.60;95142.00;;;;6181894;23;20544;-80
2022/01/17 00:57:49;;;;;;;11.53;5.33;;;0.60;1.00;0.70;95135.00;;;;6181087;23;20172;-79
2022/01/17 01:00:16;;;;;;;7.90;5.07;;;0.70;1.00;0.80;95178.00;;;;6154977;23;20211;-79
2022/01/17 01:02:43;;;;;;;9.63;4.90;;;0.60;1.00;0.60;95145.00;;;;6180292;23;20173;-80
2022/01/17 01:05:11;;;;;;;8.17;5.40;;;0.60;1.00;0.80;95157.00;;;;6155603;23;20193;-79
2022/01/17 01:07:38;;;;;;;12.07;6.17;;;0.60;1.00;0.50;95195.00;;;;6180037;23;20659;-79
2022/01/17 01:10:10;;;;;;;10.07;6.40;;;0.60;1.00;0.80;95165.00;;;;6180531;23;20168;-79
2022/01/17 01:12:44;;;;;;;9.20;5.40;;;0.50;1.00;0.50;95152.00;;;;6204911;23;20207;-79
2022/01/17 01:15:19;;;;;;;9.33;6.23;;;0.50;1.00;0.60;95196.00;;;;6155312;23;20554;-79
2022/01/17 01:17:56;;;;;;;12.20;7.47;;;0.50;1.00;0.60;95197.00;;;;6180166;23;20231;-79
2022/01/17 01:28:31;;;;;;;18.40;10.70;;;0.30;12.50;0.10;95132.00;;;;6183687;23;20161;-79
2022/01/17 01:31:01;;;;;;;17.97;11.10;;;0.20;50.10;0.30;95170.00;;;;6179508;23;20168;-78
2022/01/17 01:33:33;;;;;;;21.90;13.30;;;0.20;99.90;0.10;95160.00;;;;6180307;23;20177;-78
2022/01/17 01:36:03;;;;;;;18.53;11.43;;;0.10;99.90;-0.20;95183.00;;;;6160502;23;20168;-79
2022/01/17 01:38:31;;;;;;;20.87;12.53;;;0.10;99.90;-0.20;95168.00;;;;6155082;23;20161;-80
2022/01/17 01:40:58;;;;;;;19.90;11.93;;;0.00;99.90;0.00;95175.00;;;;6180143;23;20200;-79
2022/01/17 01:43:25;;;;;;;19.47;11.40;;;0.00;99.90;-0.10;95205.00;;;;6182644;23;20173;-78
2022/01/17 01:46:00;;;;;;;16.73;11.10;;;0.00;99.90;-0.20;95172.00;;;;6155579;23;20263;-78
2022/01/17 01:48:29;;;;;;;16.60;10.90;;;0.00;99.90;-0.10;95225.00;;;;6155942;23;20246;-79
2022/01/17 01:50:57;;;;;;;16.47;10.17;;;0.10;99.90;0.00;95216.00;;;;6180724;23;20164;-79
2022/01/17 01:53:25;;;;;;;16.70;10.33;;;0.20;99.90;0.10;95159.00;;;;6180441;23;20168;-79
2022/01/17 01:55:56;;;;;;;17.87;10.00;;;0.20;99.90;0.10;95169.00;;;;6155633;23;20667;-79
2022/01/17 01:58:26;;;;;;;13.87;9.13;;;0.20;99.90;0.30;95181.00;;;;6179997;23;20200;-79
2022/01/17 02:00:54;;;;;;;15.10;9.87;;;0.20;99.90;0.10;95197.00;;;;6179320;23;20164;-79
2022/01/17 02:03:23;;;;;;;14.13;9.33;;;0.30;99.90;0.10;95127.00;;;;6155660;23;20631;-79
2022/01/17 02:05:50;;;;;;;16.40;9.50;;;0.30;99.90;0.20;95165.00;;;;6155216;23;20192;-79
2022/01/17 02:08:17;;;;;;;15.43;9.37;;;0.30;99.90;0.10;95149.00;;;;6179439;23;20200;-79
2022/01/17 02:10:44;;;;;;;13.50;8.40;;;0.30;99.90;0.20;95156.00;;;;6179614;23;20258;-79
2022/01/17 02:13:11;;;;;;;13.50;8.93;;;0.30;99.90;0.10;95144.00;;;;6157303;23;20958;-79
2022/01/17 02:15:40;;;;;;;16.93;9.60;;;0.40;99.90;0.30;95173.00;;;;6156807;23;20233;-78
2022/01/17 02:18:08;;;;;;;13.00;8.53;;;0.40;79.50;0.20;95145.00;;;;6155341;23;20219;-79
2022/01/17 02:20:45;;;;;;;13.67;8.57;;;0.50;59.50;0.30;95161.00;;;;6179538;23;20223;-80
2022/01/17 02:23:15;;;;;;;14.00;9.17;;;0.40;51.60;0.30;95149.00;;;;6156434;23;20670;-79
2022/01/17 02:25:43;;;;;;;13.27;8.67;;;0.40;64.40;0.30;95151.00;;;;6180305;23;20202;-80
2022/01/17 02:28:10;;;;;;;14.80;8.80;;;0.40;99.90;0.20;95150.00;;;;6155312;23;20165;-79
2022/01/17 02:30:37;;;;;;;14.20;9.33;;;0.50;99.90;0.30;95165.00;;;;6155193;23;20263;-79
2022/01/17 02:33:04;;;;;;;13.03;8.10;;;0.50;99.90;0.10;95135.00;;;;6179378;23;20212;-80
2022/01/17 02:35:31;;;;;;;11.70;8.00;;;0.50;99.90;0.30;95137.00;;;;6155008;23;20491;-80
2022/01/17 02:37:58;;;;;;;12.80;8.40;;;0.50;99.90;0.50;95132.00;;;;6155322;23;20204;-80
2022/01/17 02:40:26;;;;;;;11.50;8.13;;;0.50;99.90;0.40;95197.00;;;;6157829;23;20243;-82
2022/01/17 02:43:02;;;;;;;13.30;8.00;;;0.50;99.90;0.30;95138.00;;;;6180559;23;20180;-80
2022/01/17 02:46:24;;;;;;;13.10;7.53;;;0.60;99.90;0.30;95195.00;;;;6182685;23;20611;-80
2022/01/17 02:48:32;;;;;;;15.90;8.60;;;0.60;99.90;0.20;95096.00;;;;6185531;23;20176;-81
2022/01/17 02:51:01;;;;;;;14.37;7.53;;;0.60;99.90;0.40;95149.00;;;;6158675;23;20172;-82
2022/01/17 02:53:28;;;;;;;11.57;7.10;;;0.60;99.90;0.50;95140.00;;;;6181967;23;20267;-79
2022/01/17 02:56:00;;;;;;;9.87;7.10;;;0.60;99.90;0.30;95180.00;;;;6158208;23;20608;-79
2022/01/17 02:58:34;;;;;;;12.40;7.47;;;0.70;99.90;0.70;95191.00;;;;6178713;23;20276;-79
2022/01/17 03:01:28;;;;;;;11.93;7.30;;;0.70;99.90;0.10;95198.00;;;;6154729;23;20196;-80
2022/01/17 03:04:00;;;;;;;14.47;8.30;;;0.60;99.90;0.70;95190.00;;;;6180115;23;20566;-79
2022/01/17 03:06:28;;;;;;;12.50;7.90;;;0.60;99.90;0.40;95159.00;;;;6181660;23;20203;-80
2022/01/17 03:08:56;;;;;;;12.77;7.70;;;0.70;99.90;0.50;95194.00;;;;6180898;23;20600;-78
2022/01/17 03:11:27;;;;;;;12.73;7.90;;;0.70;99.90;0.60;95201.00;;;;6180209;23;20214;-79
2022/01/17 03:13:54;;;;;;;10.67;6.70;;;0.70;99.90;0.50;95223.00;;;;6180512;23;20176;-80
2022/01/17 03:16:29;;;;;;;9.67;6.93;;;0.70;99.90;0.40;95216.00;;;;6157879;23;20180;-81
2022/01/17 03:18:57;;;;;;;12.47;7.80;;;0.70;99.90;0.40;95225.00;;;;6179525;23;20176;-79
2022/01/17 03:21:27;;;;;;;13.97;7.73;;;0.70;99.90;0.40;95175.00;;;;6179124;23;20230;-79
2022/01/17 03:23:55;;;;;;;13.50;7.63;;;0.70;99.90;0.40;95180.00;;;;6155762;23;20681;-78
2022/01/17 03:26:22;;;;;;;12.17;7.33;;;0.70;99.90;0.30;95184.00;;;;6156697;23;20191;-80
2022/01/17 03:28:49;;;;;;;10.63;6.90;;;0.70;99.90;0.30;95174.00;;;;6156499;23;20172;-80
2022/01/17 03:31:17;;;;;;;12.27;7.07;;;0.70;99.90;0.40;95158.00;;;;6156312;23;20176;-79
2022/01/17 03:33:44;;;;;;;9.77;7.00;;;0.70;99.90;0.50;95146.00;;;;6179716;23;20172;-79
2022/01/17 03:36:11;;;;;;;11.20;7.00;;;0.60;99.90;0.60;95145.00;;;;6154635;23;20175;-79
2022/01/17 03:38:38;;;;;;;11.30;6.70;;;0.60;99.90;0.30;95188.00;;;;6155132;23;20196;-80
2022/01/17 03:41:07;;;;;;;10.73;6.50;;;0.60;99.90;0.30;95156.00;;;;6154482;23;20231;-80
2022/01/17 03:43:35;;;;;;;10.33;6.50;;;0.60;1.00;0.50;95194.00;;;;6155136;23;20201;-79
2022/01/17 03:46:03;;;;;;;12.07;7.00;;;0.60;1.00;0.50;95187.00;;;;6154404;23;20168;-78
2022/01/17 03:48:33;;;;;;;11.20;7.03;;;0.50;1.00;0.20;95179.00;;;;6178971;23;20183;-79
2022/01/17 03:51:02;;;;;;;13.10;6.87;;;0.50;1.00;0.20;95209.00;;;;6154324;23;20177;-78
2022/01/17 03:53:32;;;;;;;11.43;7.00;;;0.50;1.00;0.20;95213.00;;;;6178967;23;20169;-78
2022/01/17 03:56:00;;;;;;;10.27;6.73;;;0.50;1.00;0.30;95194.00;;;;6181188;23;20203;-78
2022/01/17 03:58:27;;;;;;;10.60;5.87;;;0.40;1.00;0.00;95210.00;;;;6156457;23;20172;-78
2022/01/17 04:00:57;;;;;;;11.33;6.83;;;0.50;1.00;0.20;95236.00;;;;6156409;23;20195;-79
2022/01/17 04:03:25;;;;;;;11.20;6.43;;;0.50;1.00;0.20;95218.00;;;;6205769;23;20176;-77
2022/01/17 04:05:53;;;;;;;12.43;6.43;;;0.40;1.00;0.10;95191.00;;;;6156081;23;20193;-78
2022/01/17 04:08:20;;;;;;;14.77;7.67;;;0.40;64.50;0.30;95226.00;;;;6156385;23;20175;-78
2022/01/17 04:10:47;;;;;;;14.33;7.60;;;0.40;99.90;0.20;95171.00;;;;6180936;23;20723;-78
2022/01/17 04:13:16;;;;;;;13.60;7.47;;;0.30;99.90;0.00;95196.00;;;;6157302;23;20680;-79
2022/01/17 04:15:44;;;;;;;16.90;7.97;;;0.40;99.90;0.10;95233.00;;;;6180795;23;20631;-79
2022/01/17 04:18:12;;;;;;;13.07;7.33;;;0.40;99.90;0.00;95228.00;;;;6182082;23;20220;-79
2022/01/17 04:20:41;;;;;;;11.40;7.63;;;0.40;99.90;0.00;95216.00;;;;6182617;23;20180;-79
2022/01/17 04:23:11;;;;;;;14.27;8.10;;;0.30;99.90;0.00;95206.00;;;;6156809;23;20169;-81
2022/01/17 04:25:42;;;;;;;15.97;8.23;;;0.30;99.90;0.30;95230.00;;;;6156534;23;20638;-78
2022/01/17 04:28:12;;;;;;;13.20;7.97;;;0.30;99.90;0.10;95191.00;;;;6156618;23;20168;-79
2022/01/17 04:30:43;;;;;;;12.57;7.57;;;0.30;99.90;0.20;95235.00;;;;6180769;23;20608;-79
2022/01/17 04:33:13;;;;;;;12.53;8.07;;;0.30;99.90;0.10;95227.00;;;;6180864;23;20168;-79
2022/01/17 04:35:42;;;;;;;12.97;8.07;;;0.30;99.90;0.00;95193.00;;;;6182075;23;20180;-80
2022/01/17 04:38:16;;;;;;;15.03;8.37;;;0.30;99.90;0.00;95212.00;;;;6184654;23;20267;-79
2022/01/17 04:40:47;;;;;;;17.27;8.47;;;0.30;1.00;0.20;95214.00;;;;6181465;23;20246;-79
2022/01/17 04:43:32;;;;;;;19.73;8.63;;;0.30;99.90;0.10;95209.00;;;;6183471;23;20192;-79
2022/01/17 04:45:59;;;;;;;12.43;7.00;;;0.30;1.00;-0.10;95221.00;;;;6181749;23;20161;-79
2022/01/17 04:48:26;;;;;;;13.07;7.47;;;0.30;1.00;-0.10;95221.00;;;;6182307;23;20255;-79
2022/01/17 04:50:54;;;;;;;15.90;7.47;;;0.30;1.00;0.10;95209.00;;;;6155625;23;20678;-79
2022/01/17 04:53:22;;;;;;;14.77;7.83;;;0.20;1.00;0.10;95215.00;;;;6156009;23;20687;-79
2022/01/17 04:55:49;;;;;;;14.83;8.47;;;0.20;1.00;0.00;95215.00;;;;6180710;23;20169;-79
2022/01/17 04:58:17;;;;;;;15.10;8.13;;;0.30;1.00;0.10;95203.00;;;;6180697;23;20695;-79
2022/01/17 05:00:48;;;;;;;21.20;9.20;;;0.20;1.00;0.20;95259.00;;;;6156422;23;20285;-79
2022/01/17 05:03:19;;;;;;;16.63;7.80;;;0.20;1.00;-0.60;95245.00;;;;6187399;23;20165;-80
2022/01/17 05:05:51;;;;;;;20.67;7.97;;;0.30;1.00;-0.50;95245.00;;;;6157716;23;20251;-79
2022/01/17 05:08:19;;;;;;;17.40;8.57;;;0.30;1.00;0.00;95223.00;;;;6180059;23;20612;-79
2022/01/17 05:10:50;;;;;;;15.93;8.47;;;0.30;1.00;0.10;95236.00;;;;6179131;23;20172;-79
2022/01/17 05:13:23;;;;;;;14.67;8.57;;;0.20;1.00;0.10;95214.00;;;;6155616;23;20626;-79
2022/01/17 05:16:04;;;;;;;19.07;8.30;;;0.20;1.00;-0.10;95097.00;;;;6155634;23;20247;-80
2022/01/17 05:20:58;;;;;;;23.00;8.00;;;0.20;1.00;-0.20;95139.00;;;;6182314;23;20583;-79
2022/01/17 05:23:25;;;;;;;14.37;8.23;;;0.20;1.00;-0.10;95152.00;;;;6156551;23;20172;-79
2022/01/17 05:25:52;;;;;;;13.07;7.80;;;0.30;1.00;0.00;95129.00;;;;6157619;23;20622;-79
2022/01/17 05:28:21;;;;;;;15.33;8.33;;;0.30;1.00;0.00;95198.00;;;;6158452;23;20514;-79
2022/01/17 05:30:49;;;;;;;13.57;8.03;;;0.30;1.00;0.00;95286.00;;;;6158716;23;20173;-79
2022/01/17 05:33:16;;;;;;;12.60;7.50;;;0.30;1.00;-0.10;95149.00;;;;6158514;23;20169;-79
2022/01/17 05:35:43;;;;;;;14.80;7.50;;;0.30;1.00;-0.10;95256.00;;;;6160687;23;20556;-80
2022/01/17 05:38:12;;;;;;;14.73;7.53;;;0.30;1.00;0.10;95052.00;;;;6160860;23;20636;-79
2022/01/17 05:40:39;;;;;;;14.30;7.73;;;0.30;1.00;-0.20;95123.00;;;;6185258;23;20188;-81
2022/01/17 05:43:07;;;;;;;14.07;7.57;;;0.30;1.00;0.00;95284.00;;;;6159815;23;20576;-80
2022/01/17 05:45:42;;;;;;;13.47;7.97;;;0.30;1.00;0.10;95115.00;;;;6164046;23;20220;-84
2022/01/17 05:48:09;;;;;;;14.80;6.60;;;0.30;1.00;0.10;94875.00;;;;6163102;23;20182;-80
2022/01/17 05:50:36;;;;;;;12.87;7.83;;;0.30;1.00;0.00;95159.00;;;;6158336;23;20207;-79
2022/01/17 05:53:04;;;;;;;21.27;8.20;;;0.20;1.00;0.10;95207.00;;;;6158187;23;20200;-78
2022/01/17 05:55:31;;;;;;;14.57;8.17;;;0.20;1.00;0.00;95152.00;;;;6157476;23;20176;-79
2022/01/17 05:57:59;;;;;;;18.77;7.97;;;0.20;1.00;-0.50;94923.00;;;;6159029;23;20169;-81
2022/01/17 06:00:26;;;;;;;16.47;9.17;;;0.20;1.00;-0.60;94984.00;;;;6158918;23;20659;-79
2022/01/17 06:02:54;;;;;;;14.60;8.00;;;0.30;1.00;0.00;94983.00;;;;6157640;23;20172;-80
2022/01/17 06:05:21;;;;;;;14.87;7.37;;;0.20;1.00;-0.10;95237.00;;;;6159371;23;20300;-80
2022/01/17 06:07:49;;;;;;;15.57;7.27;;;0.30;1.00;-0.10;94870.00;;;;6161204;23;20179;-79
2022/01/17 06:10:16;;;;;;;18.73;7.40;;;0.30;1.00;0.00;95205.00;;;;6158816;23;20173;-79
2022/01/17 06:12:45;;;;;;;11.70;7.03;;;0.30;1.00;0.00;95248.00;;;;6166247;23;20222;-79
2022/01/17 06:15:13;;;;;;;10.10;6.53;;;0.40;1.00;0.10;95210.00;;;;6163348;23;20263;-79
2022/01/17 06:17:42;;;;;;;9.90;6.30;;;0.30;1.00;0.00;95283.00;;;;6161235;23;20219;-80
2022/01/17 06:20:11;;;;;;;9.10;5.90;;;0.30;1.00;0.10;95213.00;;;;6159287;23;20195;-80
2022/01/17 06:22:39;;;;;;;10.07;5.87;;;0.20;1.00;-0.10;95060.00;;;;6183666;23;20173;-79
2022/01/17 06:25:07;;;;;;;9.13;6.37;;;0.20;1.00;0.20;95006.00;;;;6185088;23;20260;-79
2022/01/17 06:27:34;;;;;;;8.47;5.40;;;0.20;1.00;0.20;95093.00;;;;6161786;23;20168;-79
2022/01/17 06:30:04;;;;;;;10.73;6.13;;;0.20;1.00;0.10;95077.00;;;;6159701;23;20174;-80
2022/01/17 06:32:31;;;;;;;7.20;5.57;;;0.10;1.00;0.10;95276.00;;;;6188310;23;20215;-80
2022/01/17 06:34:58;;;;;;;14.37;6.50;;;0.20;1.00;0.10;95239.00;;;;6162910;23;20177;-79
2022/01/17 06:37:25;;;;;;;11.50;6.10;;;0.20;1.00;0.10;95131.00;;;;6158618;23;20177;-79
2022/01/17 06:39:54;;;;;;;10.73;6.27;;;0.20;1.00;0.10;95329.00;;;;6160457;23;20176;-80
2022/01/17 06:42:23;;;;;;;10.27;6.07;;;0.10;1.00;0.00;95031.00;;;;6160683;23;20219;-80
2022/01/17 06:44:52;;;;;;;11.63;6.67;;;0.10;1.00;-0.40;95081.00;;;;6186157;23;20172;-79
2022/01/17 06:47:21;;;;;;;13.83;7.50;;;0.10;1.00;0.10;95117.00;;;;6161037;23;20227;-79
2022/01/17 06:49:48;;;;;;;14.20;7.17;;;0.10;1.00;-0.20;95035.00;;;;6167746;23;20195;-82
2022/01/17 06:52:18;;;;;;;12.23;6.63;;;0.10;1.00;-0.60;94986.00;;;;6163672;23;20284;-83
2022/01/17 06:54:53;;;;;;;13.77;6.77;;;0.10;1.00;-0.20;95164.00;;;;6140158;23;20204;-82
2022/01/17 06:57:23;;;;;;;14.67;8.47;;;0.10;1.00;-0.20;95077.00;;;;6136700;23;20244;-80
2022/01/17 06:59:51;;;;;;;14.57;7.83;;;0.10;1.00;-1.30;95057.00;;;;6143058;23;20173;-83
2022/01/17 07:02:19;;;;;;;13.17;7.77;;;0.10;1.00;0.00;94972.00;;;;6136552;23;20177;-80
2022/01/17 07:04:47;;;;;;;13.37;7.07;;;0.10;1.00;-0.20;95313.00;;;;6156188;23;20186;-82
2022/01/17 07:07:19;;;;;;;11.57;6.33;;;0.10;1.00;-1.00;95097.00;;;;6154570;23;20523;-83
2022/01/17 07:09:48;;;;;;;14.57;6.90;;;0.10;1.00;-0.50;95379.00;;;;6154740;23;20185;-81
2022/01/17 07:12:15;;;;;;;12.90;7.17;;;0.10;1.00;-0.20;95353.00;;;;6144815;23;20190;-82
2022/01/17 07:14:45;;;;;;;11.97;6.97;;;0.10;1.00;-1.20;95026.00;;;;6137655;23;20270;-81
2022/01/17 07:17:28;;;;;;;11.47;6.80;;;0.10;1.00;0.00;95204.00;;;;6117701;23;20169;-81
2022/01/17 07:19:56;;;;;;;11.77;7.33;;;0.10;1.00;0.00;95208.00;;;;6164865;23;20170;-80
2022/01/17 07:22:24;;;;;;;13.17;7.07;;;0.10;1.00;-0.20;95115.00;;;;6148151;23;20154;-81
2022/01/17 07:25:06;;;;;;;15.77;6.80;;;0.10;1.00;-0.20;95148.00;;;;6171513;23;20182;-81
2022/01/17 07:36:07;;;;;;;11.30;7.70;;;0.00;1.00;-0.40;95182.00;;;;6202930;23;20199;-80
2022/01/17 07:39:19;;;;;;;14.07;7.70;;;0.10;1.00;-0.30;95320.00;;;;6213133;23;20607;-84
2022/01/17 07:41:46;;;;;;;12.97;7.03;;;0.10;1.00;-0.40;95027.00;;;;6167837;23;20220;-81
2022/01/17 07:44:36;;;;;;;13.13;7.60;;;0.10;1.00;-0.20;94876.00;;;;6197452;23;20211;-81
2022/01/17 07:50:26;;;;;;;10.30;5.90;;;0.20;1.00;0.00;95003.00;;;;6219726;23;20215;-81
2022/01/17 07:52:54;;;;;;;9.90;6.30;;;0.10;1.00;-0.40;95088.00;;;;6191305;23;20168;-79
2022/01/17 07:55:22;;;;;;;9.90;6.10;;;0.10;1.00;-0.40;95075.00;;;;6216844;23;20239;-81
2022/01/17 07:57:55;;;;;;;9.47;6.67;;;0.20;1.00;0.20;95350.00;;;;6220595;23;20182;-79
2022/01/17 08:00:25;;;;;;;11.37;6.13;;;0.20;1.00;0.10;95292.00;;;;6230510;23;20194;-80
2022/01/17 08:02:58;;;;;;;8.10;5.43;;;0.20;1.00;0.00;95179.00;;;;6208600;23;20172;-82
2022/01/17 08:06:55;;;;;;;9.53;5.80;;;0.30;1.00;-0.20;94990.00;;;;6245041;22;20212;-81
2022/01/17 08:10:55;;;;;;;7.87;5.50;;;0.30;1.00;0.40;95365.00;;;;6026570;23;20668;-78
2022/01/17 08:14:34;;;;;;;7.53;4.63;;;0.30;1.00;0.30;94999.00;;;;5963606;24;20190;-80
2022/01/17 08:22:30;;;;;;;;;;;;;;;;;;;;;
2022/01/17 08:48:58;;;;;;;;;;;;;;;;;;;;;
2022/01/17 08:53:03;;;;;;;7.73;4.13;;;0.50;99.90;0.50;95336.00;;;;5900511;24;20547;-80
2022/01/17 09:02:04;;;;;;;5.17;3.47;;;0.70;99.90;0.90;94967.00;;;;5959979;24;20521;-80
2022/01/17 09:05:52;;;;;;;5.00;3.53;;;0.80;99.90;0.80;95441.00;;;;5929186;23;20314;-80
2022/01/17 09:17:45;;;;;;;3.03;2.53;;;1.10;99.90;1.50;95148.00;;;;6084270;23;20160;-82
2022/01/17 09:30:26;;;;;;;3.13;2.27;;;1.70;99.90;2.40;95173.00;;;;5902127;24;20167;-81
2022/01/17 09:38:18;;;;;;;2.10;1.73;;;3.10;1.00;2.40;95161.00;;;;5904647;24;20227;-82
2022/01/17 09:40:50;;;;;;;1.90;1.67;;;3.40;99.90;3.00;95081.00;;;;5848619;24;20250;-80
2022/01/17 09:43:40;;;;;;;2.73;1.87;;;3.30;99.90;2.50;95099.00;;;;6003654;23;20177;-79
2022/01/17 09:46:09;;;;;;;3.53;1.90;;;3.30;99.90;2.80;95330.00;;;;6153293;23;20511;-80
2022/01/17 09:48:39;;;;;;;1.80;1.70;;;3.10;99.90;2.60;95197.00;;;;6155633;23;20707;-80
2022/01/17 09:51:20;;;;;;;2.30;1.90;;;3.00;99.90;2.50;95390.00;;;;6152423;23;20598;-80
2022/01/17 09:53:53;;;;;;;2.10;1.77;;;3.10;1.00;2.40;95405.00;;;;6153585;23;20256;-82
2022/01/17 09:56:23;;;;;;;2.20;2.00;;;3.40;99.90;2.60;95347.00;;;;6127109;23;20165;-80
2022/01/17 09:58:51;;;;;;;2.17;1.97;;;3.40;99.90;2.90;95337.00;;;;6150242;23;20231;-79
2022/01/17 10:01:18;;;;;;;2.33;1.90;;;3.60;99.90;3.10;95402.00;;;;6149192;23;20190;-79
2022/01/17 10:03:47;;;;;;;2.93;2.20;;;3.60;75.30;2.90;95341.00;;;;6125733;23;20183;-80
2022/01/17 10:06:14;;;;;;;2.50;1.90;;;3.20;99.90;2.40;95378.00;;;;6178100;23;20187;-78
2022/01/17 10:08:41;;;;;;;3.43;2.20;;;3.30;99.90;2.40;95414.00;;;;6188210;23;20754;-79
2022/01/17 10:11:16;;;;;;;3.37;2.37;;;3.10;99.90;2.20;95410.00;;;;6209020;23;20175;-79
2022/01/17 10:13:46;;;;;;;2.97;2.50;;;2.90;99.90;1.70;95384.00;;;;6265305;22;20200;-79
2022/01/17 10:16:18;;;;;;;3.03;2.67;;;2.70;99.90;1.80;95433.00;;;;6214456;23;20519;-80
2022/01/17 10:19:02;;;;;;;2.53;2.30;;;2.30;1.00;1.30;95442.00;;;;6217170;23;20176;-80
2022/01/17 10:21:31;;;;;;;3.60;2.60;;;2.10;1.00;1.50;95434.00;;;;6216756;23;20195;-79
2022/01/17 10:34:53;;;;;;;2.50;2.00;;;2.10;99.90;2.50;95364.00;;;;6244362;23;20205;-79
2022/01/17 10:37:29;;;;;;;3.17;2.00;;;2.30;99.90;3.00;95426.00;;;;6217428;23;20184;-80
2022/01/17 10:40:10;;;;;;;2.57;2.07;;;2.70;99.90;2.80;95318.00;;;;6215710;23;20163;-79
2022/01/17 10:42:45;;;;;;;2.03;1.80;;;3.00;1.00;2.70;95197.00;;;;6218760;23;20176;-82
2022/01/17 10:45:21;;;;;;;1.70;1.60;;;3.30;1.00;4.40;95212.00;;;;6219160;23;20197;-80
2022/01/17 10:47:56;;;;;;;1.73;1.53;;;3.70;99.90;4.90;95435.00;;;;6216867;23;20171;-80
2022/01/17 10:50:49;;;;;;;1.60;1.50;;;4.40;99.90;3.90;95405.00;;;;6217321;23;20175;-80
2022/01/17 10:53:18;;;;;;;1.50;1.40;;;4.60;1.00;3.90;95391.00;;;;6214277;23;20171;-78
2022/01/17 10:55:53;;;;;;;1.80;1.63;;;4.20;1.00;3.30;95440.00;;;;6240012;23;20200;-80
2022/01/17 10:58:31;;;;;;;2.13;1.80;;;3.80;1.00;3.10;95460.00;;;;6265313;22;20251;-79
2022/01/17 11:01:09;;;;;;;1.60;1.47;;;3.60;1.00;2.70;95390.00;;;;6217193;23;20183;-80
2022/01/17 11:03:42;;;;;;;1.70;1.50;;;3.40;15.40;2.80;95460.00;;;;6219062;23;20262;-79
2022/01/17 11:06:14;;;;;;;2.20;1.70;;;3.10;92.20;2.50;95446.00;;;;6240667;22;20528;-79
2022/01/17 11:08:41;;;;;;;2.50;1.90;;;2.80;99.90;1.80;95417.00;;;;6249008;23;20177;-80
2022/01/17 11:11:11;;;;;;;6.53;2.00;;;2.60;99.90;2.40;95467.00;;;;6221413;23;20249;-79
2022/01/17 11:13:43;;;;;;;3.10;2.20;;;2.50;1.00;2.60;95452.00;;;;6238892;23;20190;-78
2022/01/17 11:16:12;;;;;;;6.57;2.30;;;2.30;1.00;1.90;95413.00;;;;6240129;23;20494;-78
2022/01/17 11:18:57;;;;;;;3.67;2.73;;;2.20;1.00;1.90;95434.00;;;;6242319;23;20182;-79
2022/01/17 11:21:25;;;;;;;3.30;2.90;;;2.10;1.00;2.20;95411.00;;;;6214455;23;20694;-79
2022/01/17 11:23:53;;;;;;;2.87;2.50;;;2.20;1.00;2.60;95430.00;;;;6239449;23;20221;-79
2022/01/17 11:26:20;;;;;;;2.90;2.50;;;2.30;1.00;2.30;95444.00;;;;6215574;23;20171;-81
2022/01/17 11:28:54;;;;;;;3.63;2.40;;;2.50;1.00;2.40;95406.00;;;;6240222;23;20201;-79
2022/01/17 11:31:24;;;;;;;2.53;1.90;;;2.30;1.00;1.90;95417.00;;;;6240338;23;20658;-79
2022/01/17 11:33:52;;;;;;;3.10;2.20;;;2.40;1.00;2.10;95463.00;;;;6217236;23;20171;-79
2022/01/17 11:36:19;;;;;;;1.83;1.67;;;2.40;1.00;2.30;95412.00;;;;6241252;23;20210;-79
2022/01/17 11:38:54;;;;;;;2.03;1.57;;;2.30;1.00;2.30;95442.00;;;;6238765;23;20182;-79
2022/01/17 11:41:24;;;;;;;1.70;1.60;;;2.10;1.00;2.10;95443.00;;;;6221867;23;20186;-79
2022/01/17 11:44:05;;;;;;;2.57;1.70;;;2.20;1.00;2.10;95442.00;;;;6247941;23;20165;-80
2022/01/17 11:46:43;;;;;;;2.00;1.80;;;2.40;1.00;2.00;95448.00;;;;6242235;23;20182;-80
2022/01/17 11:49:11;;;;;;;2.47;1.97;;;2.50;1.00;2.10;95421.00;;;;6239696;23;20856;-79
2022/01/17 11:51:45;;;;;;;4.30;2.70;;;2.50;99.90;2.50;95429.00;;;;6238270;23;20702;-80
2022/01/17 11:54:27;;;;;;;2.90;2.30;;;2.20;1.00;2.10;95425.00;;;;6244162;23;20193;-80
2022/01/17 11:56:56;;;;;;;2.30;1.80;;;2.10;1.00;2.70;95417.00;;;;6214715;23;20202;-79
2022/01/17 11:59:42;;;;;;;2.03;1.77;;;2.10;1.00;2.20;95403.00;;;;6239978;23;20174;-80
2022/01/17 12:02:23;;;;;;;2.47;1.90;;;2.30;1.00;2.60;95415.00;;;;6238486;23;20290;-79
2022/01/17 12:05:28;;;;;;;2.53;2.00;;;2.40;1.00;2.30;95415.00;;;;6239919;22;20183;-80
2022/01/17 12:07:57;;;;;;;2.50;1.63;;;2.30;1.00;2.10;95412.00;;;;6195986;23;20495;-79
2022/01/17 12:10:49;;;;;;;1.97;1.70;;;2.40;1.00;2.80;95412.00;;;;6238654;23;20599;-79
2022/01/17 12:13:21;;;;;;;5.63;2.30;;;2.50;1.00;2.00;95449.00;;;;6214122;23;20178;-78
2022/01/17 12:16:16;;;;;;;4.07;2.67;;;2.40;99.90;2.10;95398.00;;;;6215200;23;20257;-80
2022/01/17 12:18:48;;;;;;;3.93;2.70;;;2.20;1.00;1.80;95432.00;;;;6241259;23;20175;-78
2022/01/17 12:21:53;;;;;;;6.30;3.33;;;2.10;1.00;1.70;95427.00;;;;6215450;23;20191;-78
2022/01/17 12:24:21;;;;;;;3.70;3.00;;;2.40;1.00;2.00;95433.00;;;;6215480;23;20171;-79
2022/01/17 12:26:56;;;;;;;4.13;2.80;;;2.50;99.90;1.90;95415.00;;;;6217029;23;20163;-82
2022/01/17 12:29:43;;;;;;;4.93;2.93;;;2.40;99.90;2.00;95411.00;;;;6216719;23;20266;-78
2022/01/17 12:32:25;;;;;;;3.80;2.93;;;2.50;99.90;1.80;95408.00;;;;6241169;22;20159;-80
2022/01/17 12:35:05;;;;;;;4.83;2.77;;;2.40;99.90;1.50;95428.00;;;;6219023;23;20630;-79
2022/01/17 12:37:47;;;;;;;3.53;2.93;;;2.10;99.90;1.80;95373.00;;;;6215410;23;20262;-79
2022/01/17 12:40:19;;;;;;;4.70;3.60;;;1.90;1.00;1.90;95406.00;;;;6215739;23;20221;-78
2022/01/17 12:43:11;;;;;;;4.83;3.50;;;1.80;1.00;2.30;95401.00;;;;6215440;23;20187;-79
2022/01/17 12:45:48;;;;;;;5.23;3.67;;;1.80;1.00;2.10;95356.00;;;;6241172;23;20166;-78
2022/01/17 12:48:22;;;;;;;3.80;3.20;;;1.80;1.00;2.10;95360.00;;;;6215157;23;20190;-78
2022/01/17 12:50:53;;;;;;;5.13;3.23;;;1.80;1.00;1.70;95354.00;;;;6240800;23;20183;-79
2022/01/17 12:53:26;;;;;;;4.87;3.83;;;1.80;1.00;2.20;95394.00;;;;6215504;23;20339;-79
2022/01/17 12:56:05;;;;;;;6.80;3.40;;;1.70;1.00;2.50;95386.00;;;;6215196;23;20182;-77
2022/01/17 12:58:38;;;;;;;5.93;3.93;;;1.70;1.00;2.50;95402.00;;;;6215603;23;20265;-79
2022/01/17 13:01:15;;;;;;;4.40;3.50;;;1.70;1.00;2.00;95389.00;;;;6265259;22;20175;-80
2022/01/17 13:03:47;;;;;;;5.47;3.57;;;2.10;1.00;3.20;95381.00;;;;6240370;23;20177;-79
2022/01/17 13:06:18;;;;;;;3.67;2.90;;;2.50;99.90;2.90;95394.00;;;;6240084;22;20201;-79
2022/01/17 13:08:49;;;;;;;6.47;2.90;;;2.60;99.90;2.60;95397.00;;;;6215584;23;20164;-79
2022/01/17 13:11:21;;;;;;;4.13;2.90;;;2.60;99.90;2.80;95361.00;;;;6215287;23;20209;-78